createdAt,value
2022-12-11T00:02:47.279Z,11.96
2022-12-11T00:08:06.266Z,11.95
2022-12-11T00:13:25.424Z,11.96
2022-12-11T00:18:45.024Z,11.96
2022-12-11T00:24:04.021Z,11.96
2022-12-11T00:29:23.643Z,11.96
2022-12-11T00:34:42.714Z,11.96
2022-12-11T00:40:02.225Z,11.95
2022-12-11T00:45:21.210Z,11.95
2022-12-11T00:50:40.990Z,11.95
2022-12-11T00:56:00.621Z,11.95
2022-12-11T01:01:19.659Z,11.95
2022-12-11T01:06:38.886Z,11.94
2022-12-11T01:11:58.096Z,11.95
2022-12-11T01:17:17.289Z,11.95
2022-12-11T01:22:36.555Z,11.95
2022-12-11T01:27:55.640Z,11.94
2022-12-11T01:33:15.302Z,11.95
2022-12-11T01:38:34.982Z,11.95
2022-12-11T01:43:54.009Z,11.95
2022-12-11T01:49:12.991Z,11.94
2022-12-11T01:54:31.893Z,11.95
2022-12-11T01:59:51.302Z,11.95
2022-12-11T02:05:10.542Z,11.94
2022-12-11T02:10:29.344Z,11.94
2022-12-11T02:15:48.019Z,11.94
2022-12-11T02:21:07.613Z,11.94
2022-12-11T02:26:26.869Z,11.94
2022-12-11T02:31:46.641Z,11.94
2022-12-11T02:37:05.730Z,11.94
2022-12-11T02:42:24.725Z,11.95
2022-12-11T02:47:44.376Z,11.94
2022-12-11T02:53:04.040Z,11.94
2022-12-11T02:58:23.151Z,11.94
2022-12-11T03:03:42.244Z,11.94
2022-12-11T03:09:01.822Z,11.94
2022-12-11T03:14:21.529Z,11.94
2022-12-11T03:19:41.340Z,11.93
2022-12-11T03:25:00.557Z,11.93
2022-12-11T03:30:20.328Z,11.94
2022-12-11T03:35:39.850Z,11.93
2022-12-11T03:40:59.313Z,11.94
2022-12-11T03:46:18.308Z,11.93
2022-12-11T03:51:37.212Z,11.93
2022-12-11T03:56:57.028Z,11.94
2022-12-11T04:02:16.092Z,11.93
2022-12-11T04:07:35.825Z,11.93
2022-12-11T04:12:55.067Z,11.93
2022-12-11T04:18:14.921Z,11.94
2022-12-11T04:23:34.020Z,11.93
2022-12-11T04:28:53.486Z,11.92
2022-12-11T04:34:12.541Z,11.93
2022-12-11T04:39:32.116Z,11.93
2022-12-11T04:44:51.395Z,11.93
2022-12-11T04:50:10.603Z,11.92
2022-12-11T04:55:30.198Z,11.93
2022-12-11T05:00:49.792Z,11.92
2022-12-11T05:06:09.335Z,11.92
2022-12-11T05:11:28.695Z,11.92
2022-12-11T05:16:47.725Z,11.92
2022-12-11T05:22:06.959Z,11.92
2022-12-11T05:27:26.008Z,11.92
2022-12-11T05:32:45.692Z,11.92
2022-12-11T05:38:04.677Z,11.92
2022-12-11T05:43:24.129Z,11.92
2022-12-11T05:48:43.882Z,11.92
2022-12-11T05:54:03.593Z,11.92
2022-12-11T05:59:22.622Z,11.91
2022-12-11T06:04:41.471Z,11.92
2022-12-11T06:10:00.441Z,11.92
2022-12-11T06:15:19.655Z,11.92
2022-12-11T06:20:39.782Z,11.91
2022-12-11T06:25:58.656Z,11.92
2022-12-11T06:31:17.549Z,11.92
2022-12-11T06:36:37.013Z,11.91
2022-12-11T06:41:56.545Z,11.91
2022-12-11T06:47:15.962Z,11.91
2022-12-11T06:52:35.066Z,11.92
2022-12-11T06:57:54.567Z,11.91
2022-12-11T07:03:14.374Z,11.92
2022-12-11T07:08:33.463Z,11.91
2022-12-11T07:13:52.574Z,11.91
2022-12-11T07:20:26.790Z,11.9
2022-12-11T07:24:33.158Z,11.91
2022-12-11T07:29:52.255Z,11.91
2022-12-11T07:35:10.557Z,11.91
2022-12-11T07:40:29.794Z,11.92
2022-12-11T07:45:48.743Z,11.92
2022-12-11T07:51:08.112Z,11.94
2022-12-11T07:56:27.724Z,11.94
2022-12-11T08:01:46.143Z,11.94
2022-12-11T08:07:05.133Z,11.95
2022-12-11T08:12:24.633Z,11.94
2022-12-11T08:17:43.921Z,11.94
2022-12-11T08:23:03.450Z,11.94
2022-12-11T08:28:22.878Z,11.94
2022-12-11T08:33:42.496Z,11.94
2022-12-11T08:39:02.310Z,11.94
2022-12-11T08:44:21.168Z,11.95
2022-12-11T08:49:40.040Z,11.95
2022-12-11T08:54:59.320Z,11.95
2022-12-11T09:00:18.831Z,11.96
2022-12-11T09:05:37.932Z,11.95
2022-12-11T09:10:57.559Z,11.95
2022-12-11T09:16:17.472Z,11.95
2022-12-11T09:21:36.331Z,11.95
2022-12-11T09:26:55.322Z,11.95
2022-12-11T09:32:14.281Z,11.96
2022-12-11T09:37:34.015Z,11.96
2022-12-11T09:42:54.455Z,11.96
2022-12-11T09:48:14.257Z,11.96
2022-12-11T09:53:34.357Z,11.96
2022-12-11T09:58:52.411Z,11.96
2022-12-11T10:04:11.944Z,11.95
2022-12-11T10:09:30.971Z,11.96
2022-12-11T10:14:49.931Z,11.96
2022-12-11T10:20:09.560Z,11.95
2022-12-11T10:25:28.761Z,11.95
2022-12-11T10:30:47.794Z,11.95
2022-12-11T10:36:07.285Z,11.94
2022-12-11T10:41:26.625Z,11.95
2022-12-11T10:46:46.003Z,11.94
2022-12-11T10:52:05.787Z,11.94
2022-12-11T10:57:25.485Z,11.96
2022-12-11T11:02:44.537Z,11.95
2022-12-11T11:08:04.347Z,11.96
2022-12-11T11:13:23.136Z,11.95
2022-12-11T11:18:42.106Z,11.94
2022-12-11T11:24:01.767Z,11.94
2022-12-11T11:29:21.283Z,11.93
2022-12-11T11:34:40.304Z,11.94
2022-12-11T11:40:00.144Z,11.94
2022-12-11T11:45:19.263Z,11.93
2022-12-11T11:50:38.445Z,11.94
2022-12-11T11:55:57.660Z,11.94
2022-12-11T12:01:16.925Z,11.94
2022-12-11T12:06:36.710Z,11.94
2022-12-11T12:11:55.599Z,11.94
2022-12-11T12:17:14.900Z,11.93
2022-12-11T12:22:33.930Z,11.93
2022-12-11T12:27:53.545Z,11.94
2022-12-11T12:33:12.644Z,11.93
2022-12-11T12:38:31.975Z,11.94
2022-12-11T12:43:51.003Z,11.93
2022-12-11T12:49:09.829Z,11.93
2022-12-11T12:54:28.912Z,11.92
2022-12-11T12:59:47.953Z,11.93
2022-12-11T13:05:07.092Z,11.92
2022-12-11T13:10:26.430Z,11.93
2022-12-11T13:15:46.491Z,11.92
2022-12-11T13:21:06.329Z,11.92
2022-12-11T13:26:25.364Z,11.92
2022-12-11T13:31:44.400Z,11.91
2022-12-11T13:37:03.946Z,11.9
2022-12-11T13:42:23.588Z,11.91
2022-12-11T13:47:42.797Z,11.91
2022-12-11T13:53:02.416Z,11.91
2022-12-11T13:58:21.509Z,11.92
2022-12-11T14:03:40.694Z,11.92
2022-12-11T14:04:06.871Z,11.88
2022-12-11T14:09:26.153Z,11.95
2022-12-11T14:14:45.266Z,11.95
2022-12-11T14:20:04.838Z,11.96
2022-12-11T14:25:24.380Z,11.96
2022-12-11T14:30:43.692Z,11.97
2022-12-11T14:36:03.056Z,11.97
2022-12-11T14:41:22.239Z,11.98
2022-12-11T14:46:41.809Z,11.96
2022-12-11T14:52:01.205Z,11.94
2022-12-11T14:57:20.174Z,11.92
2022-12-11T15:02:39.133Z,11.9
2022-12-11T15:07:58.911Z,11.9
2022-12-11T15:13:17.502Z,11.9
2022-12-11T15:18:36.816Z,11.9
2022-12-11T15:23:55.649Z,11.9
2022-12-11T15:29:15.146Z,11.9
2022-12-11T15:34:34.849Z,11.9
2022-12-11T15:39:54.993Z,11.9
2022-12-11T15:45:14.141Z,11.9
2022-12-11T15:50:32.727Z,11.9
2022-12-11T15:55:52.520Z,11.9
2022-12-11T16:01:11.638Z,11.9
2022-12-11T16:06:30.560Z,11.9
2022-12-11T16:11:50.311Z,11.89
2022-12-11T16:17:09.730Z,11.9
2022-12-11T16:22:29.145Z,11.9
2022-12-11T16:27:48.260Z,11.9
2022-12-11T16:33:11.956Z,11.89
2022-12-11T16:38:26.535Z,11.89
2022-12-11T16:43:46.293Z,11.89
2022-12-11T16:49:05.161Z,11.89
2022-12-11T16:54:24.639Z,11.88
2022-12-11T16:59:44.278Z,11.89
2022-12-11T17:05:03.465Z,11.89
2022-12-11T17:10:22.392Z,11.89
2022-12-11T17:15:41.943Z,11.88
2022-12-11T17:21:00.945Z,11.88
2022-12-11T17:26:20.288Z,11.88
2022-12-11T17:31:39.692Z,11.89
2022-12-11T17:36:59.275Z,11.88
2022-12-11T17:42:18.564Z,11.88
2022-12-11T17:47:37.956Z,11.88
2022-12-11T17:52:56.811Z,11.88
2022-12-11T17:58:16.164Z,11.88
2022-12-11T18:04:50.321Z,11.88
2022-12-11T18:08:56.001Z,11.88
2022-12-11T18:14:17.306Z,11.88
2022-12-11T18:19:33.614Z,11.88
2022-12-11T18:24:52.979Z,11.88
2022-12-11T18:30:12.102Z,11.88
2022-12-11T18:35:31.790Z,11.88
2022-12-11T18:40:51.409Z,11.88
2022-12-11T18:46:10.930Z,11.88
2022-12-11T18:51:30.488Z,11.88
2022-12-11T18:56:50.076Z,11.88
2022-12-11T19:02:09.292Z,11.88
2022-12-11T19:07:28.227Z,11.88
2022-12-11T19:12:47.725Z,11.87
2022-12-11T19:18:07.534Z,11.88
2022-12-11T19:23:26.826Z,11.87
2022-12-11T19:28:45.959Z,11.87
2022-12-11T19:34:05.381Z,11.88
2022-12-11T19:39:24.633Z,11.88
2022-12-11T19:44:43.977Z,11.87
2022-12-11T19:50:03.481Z,11.88
2022-12-11T19:55:22.584Z,11.88
2022-12-11T20:00:41.781Z,11.87
2022-12-11T20:06:01.359Z,11.87
2022-12-11T20:11:20.345Z,11.87
2022-12-11T20:17:09.016Z,11.87
2022-12-11T20:21:59.225Z,11.87
2022-12-11T20:27:18.370Z,11.86
2022-12-11T20:32:37.789Z,11.87
2022-12-11T20:37:56.216Z,11.86
2022-12-11T20:43:15.145Z,11.86
2022-12-11T20:48:34.310Z,11.87
2022-12-11T20:53:53.867Z,11.87
2022-12-11T20:59:12.886Z,11.86
2022-12-11T21:04:32.128Z,11.86
2022-12-11T21:09:51.723Z,11.86
2022-12-11T21:15:11.249Z,11.86
2022-12-11T21:20:30.471Z,11.86
2022-12-11T21:25:49.996Z,11.86
2022-12-11T21:31:09.470Z,11.87
2022-12-11T21:36:29.799Z,11.86
2022-12-11T21:41:49.375Z,11.86
2022-12-11T21:47:07.709Z,11.86
2022-12-11T21:52:27.163Z,11.86
2022-12-11T21:57:46.179Z,11.86
2022-12-11T22:03:06.250Z,11.86
2022-12-11T22:08:25.216Z,11.86
2022-12-11T22:14:59.302Z,11.86
2022-12-11T22:19:04.930Z,11.86
2022-12-11T22:24:24.037Z,11.86
2022-12-11T22:29:44.063Z,11.86
2022-12-11T22:35:03.045Z,11.86
2022-12-11T22:40:22.476Z,11.85
2022-12-11T22:45:41.603Z,11.86
2022-12-11T22:51:00.407Z,11.86
2022-12-11T22:56:19.272Z,11.86
2022-12-11T23:01:37.968Z,11.85
2022-12-11T23:06:57.481Z,11.86
2022-12-11T23:12:17.341Z,11.86
2022-12-11T23:17:36.805Z,11.86
2022-12-11T23:22:55.754Z,11.85
2022-12-11T23:28:15.030Z,11.86
2022-12-11T23:33:33.910Z,11.85
2022-12-11T23:38:54.868Z,11.85
2022-12-11T23:44:13.370Z,11.85
2022-12-11T23:49:32.396Z,11.84
2022-12-11T23:54:51.319Z,11.85
